Latest Weather Observations for Kanagulk

IDV60801

Issued at 9:05 pm EDT Friday 24 October 2014 (issued every 30 minutes, with the page automatically refreshed every 10 minutes)

About weather observations | Map of weather stations | Latest weather observations for VIC | Other Formats
Station Details ID: 079097 Name: KANAGULK Lat: -37.12 Lon: 141.80 Height: 188.8 m
Data from the previous 72 hours. | See also: Recent months at Kanagulk
Date/Time
EDT
Temp
°C
App
Temp
°C
Dew
Point
Rel
Hum
%
Delta-T
°C
Wind Press
QNH
hPa
Press
MSL
hPa
Rain
since 9 am
mm
Dir
 
Spd
km/h
Gust
km/h
Spd
kts
Gust
kts
24/09:00pm 16.7 14.0 11.6 72 2.8 SSW 17 24 9 13 1015.2 1015.1 0.0
24/08:30pm 18.1 15.1 11.9 67 3.4 SW 19 26 10 14 1014.6 1014.5 0.0
24/08:00pm 21.6 19.4 5.1 34 8.2 W 6 13 3 7 1013.8 1013.7 0.0
24/07:30pm 24.1 21.3 5.0 29 9.7 W 9 17 5 9 1013.4 1013.3 0.0
24/07:00pm 25.4 22.6 5.1 27 10.4 W 9 17 5 9 1012.8 1012.8 0.0
24/06:30pm 26.1 22.9 6.7 29 10.2 W 13 24 7 13 1012.8 1012.8 0.0
24/06:00pm 26.5 23.2 6.5 28 10.6 W 13 20 7 11 1012.5 1012.5 0.0
24/05:30pm 26.3 22.7 6.9 29 10.3 W 15 24 8 13 1012.6 1012.6 0.0
24/05:00pm 26.7 23.5 6.7 28 10.6 W 13 20 7 11 1012.4 1012.4 0.0
24/04:30pm 26.6 24.0 7.6 30 10.2 WSW 11 22 6 12 1012.5 1012.5 0.0
24/04:00pm 27.7 24.5 8.6 30 10.5 W 15 28 8 15 1012.6 1012.6 0.0
24/03:30pm 26.6 23.2 7.6 30 10.2 W 15 30 8 16 1012.6 1012.6 0.0
24/03:00pm 26.9 23.3 8.4 31 10.1 W 17 28 9 15 1012.9 1012.9 0.0
24/02:30pm 26.0 22.0 6.6 29 10.2 W 17 24 9 13 1012.8 1012.8 0.0
24/02:00pm 26.5 23.3 8.5 32 9.8 W 15 26 8 14 1012.9 1012.9 0.0
24/01:30pm 25.4 22.0 6.1 29 10.0 W 13 26 7 14 1012.9 1012.9 0.0
24/01:00pm 25.2 21.1 6.4 30 9.8 W 17 24 9 13 1013.0 1013.0 0.0
24/12:30pm 24.0 20.0 6.7 33 9.0 W 17 24 9 13 1013.3 1013.2 0.0
24/12:00pm 24.2 20.9 9.4 39 8.1 WNW 17 30 9 16 1013.4 1013.3 0.0
24/11:30am 23.8 22.3 13.1 51 6.2 NW 13 20 7 11 1013.5 1013.4 0.0
24/11:00am 21.0 20.0 13.4 62 4.4 NW 11 15 6 8 1013.5 1013.4 0.0
24/10:30am 19.5 18.7 13.9 70 3.2 NW 11 15 6 8 1013.6 1013.5 0.0
24/10:00am 17.6 17.3 14.5 82 1.8 NW 9 13 5 7 1013.2 1013.1 0.0
24/09:30am 15.9 17.4 15.7 99 0.1 N 2 9 1 5 1013.2 1013.1 0.0
24/09:00am 14.0 15.2 13.8 99 0.1 NNE 0 0 0 0 1012.8 1012.8 0.0
24/08:30am 12.5 13.2 12.3 99 0.1 CALM 0 0 0 0 1013.2 1013.1 0.0
24/08:00am 11.7 12.2 11.5 99 0.1 CALM 0 0 0 0 1012.6 1012.6 0.0
24/07:30am 10.9 11.1 10.7 99 0.1 CALM 0 0 0 0 1012.5 1012.5 0.0
24/07:00am 9.2 9.0 9.1 99 0.0 CALM 0 0 0 0 1012.3 1012.3 0.0
24/06:30am 8.7 8.4 8.6 99 0.0 CALM 0 0 0 0 1012.2 1012.2 0.0
24/06:00am 9.1 8.9 9.0 99 0.0 CALM 0 0 0 0 1012.1 1012.1 0.0
24/05:30am 9.3 9.1 9.2 99 0.0 CALM 0 0 0 0 1012.1 1012.1 0.0
24/05:00am 9.6 9.5 9.5 99 0.1 CALM 0 0 0 0 1011.9 1011.8 0.0
24/04:30am 9.7 9.6 9.6 99 0.1 CALM 0 0 0 0 1012.1 1012.1 0.0
24/04:00am 10.5 10.6 10.3 99 0.1 CALM 0 0 0 0 1011.9 1011.8 0.0
24/03:30am 10.9 11.1 10.7 99 0.1 CALM 0 0 0 0 1012.3 1012.3 0.0
24/03:00am 11.7 12.1 11.4 98 0.2 CALM 0 0 0 0 1012.4 1012.4 0.0
24/02:30am 12.1 11.3 11.8 98 0.2 SW 7 9 4 5 1012.7 1012.7 0.0
24/02:00am 12.4 11.6 11.8 96 0.3 SW 7 9 4 5 1012.8 1012.8 0.0
24/01:30am 12.6 11.8 11.7 94 0.5 SSW 7 9 4 5 1013.2 1013.1 0.0
24/01:00am 13.3 13.8 11.7 90 0.9 CALM 0 6 0 3 1013.2 1013.1 0.0
24/12:30am 13.8 13.1 12.0 89 1.0 SE 7 9 4 5 1013.5 1013.4 0.0
24/12:00am 14.2 13.2 12.2 88 1.1 SSW 9 11 5 6 1013.6 1013.5 0.0
 
Date/Time
EDT
Temp
°C
App
Temp
°C
Dew
Point
Rel
Hum
%
Delta-T
°C
Wind Press
QNH
hPa
Press
MSL
hPa
Rain
since 9 am
mm
Dir
 
Spd
km/h
Gust
km/h
Spd
kts
Gust
kts
23/11:30pm 14.4 13.7 12.1 86 1.3 S 7 11 4 6 1013.8 1013.7 0.0
23/11:00pm 15.0 13.6 12.1 83 1.6 S 11 15 6 8 1014.0 1013.9 0.0
23/10:30pm 15.8 14.0 12.2 79 2.0 SSE 13 17 7 9 1014.0 1013.9 0.0
23/10:00pm 17.0 14.9 12.5 75 2.5 S 15 19 8 10 1014.2 1014.1 0.0
23/09:30pm 17.8 15.4 12.5 71 3.0 S 17 22 9 12 1014.0 1013.9 0.0
23/09:00pm 18.4 16.0 12.8 70 3.2 S 17 22 9 12 1013.9 1013.8 0.0
23/08:30pm 19.3 16.9 12.8 66 3.7 S 17 24 9 13 1013.6 1013.5 0.0
23/08:00pm 20.4 18.1 13.1 63 4.2 S 17 26 9 14 1013.6 1013.5 0.0
23/07:30pm 21.6 19.0 13.2 59 4.9 S 19 28 10 15 1013.5 1013.4 0.0
23/07:00pm 23.1 19.9 13.0 53 5.9 S 22 28 12 15 1013.4 1013.3 0.0
23/06:30pm 24.3 21.5 13.2 50 6.5 S 20 28 11 15 1013.5 1013.4 0.0
23/06:00pm 25.1 22.9 13.3 48 6.9 S 17 28 9 15 1013.5 1013.4 0.0
23/05:30pm 25.5 23.3 13.4 47 7.1 S 17 26 9 14 1013.5 1013.4 0.0
23/05:00pm 25.2 22.8 12.8 46 7.2 S 17 24 9 13 1013.6 1013.5 0.0
23/04:30pm 25.3 22.9 12.5 45 7.4 S 17 26 9 14 1013.8 1013.7 0.0
23/04:00pm 24.9 21.9 12.5 46 7.2 SSE 20 26 11 14 1014.0 1013.9 0.0
23/03:30pm 24.8 22.0 12.7 47 7.0 S 19 28 10 15 1014.1 1014.0 0.0
23/03:00pm 24.4 21.6 12.7 48 6.8 S 19 26 10 14 1014.4 1014.3 0.0
23/02:30pm 22.9 19.9 12.5 52 6.0 SSE 20 26 11 14 1015.0 1014.9 0.0
23/02:00pm 23.6 20.9 12.9 51 6.2 S 19 26 10 14 1015.5 1015.4 0.0
23/01:30pm 22.5 19.6 12.4 52 5.8 SSE 19 26 10 14 1015.7 1015.6 0.0
23/01:00pm 20.4 16.9 12.1 59 4.7 SSE 22 32 12 17 1016.2 1016.1 0.0
23/12:30pm 20.0 16.5 12.3 61 4.3 SSE 22 28 12 15 1016.5 1016.5 0.0
23/12:00pm 19.6 15.6 11.9 61 4.3 SSE 24 33 13 18 1016.9 1016.9 0.0
23/11:30am 19.1 15.1 11.9 63 4.0 S 24 35 13 19 1017.2 1017.2 0.0
23/11:00am 18.0 13.9 11.6 66 3.5 S 24 33 13 18 1017.6 1017.6 0.0
23/10:30am 16.7 12.1 11.0 69 3.1 SSE 26 35 14 19 1017.9 1017.9 0.0
23/10:00am 16.1 11.3 11.5 74 2.5 S 28 39 15 21 1017.8 1017.8 0.0
23/09:30am 15.0 10.0 11.0 77 2.1 SSE 28 37 15 20 1017.8 1017.8 0.0
23/09:00am 14.5 9.6 11.3 81 1.7 SSE 28 41 15 22 1018.0 1018.0 0.2
23/08:30am 13.2 7.7 10.7 85 1.3 SSE 30 44 16 24 1018.1 1018.1 0.2
23/08:00am 12.7 7.4 11.1 90 0.8 SSE 30 39 16 21 1018.1 1018.1 0.2
23/07:30am 12.2 6.2 10.9 92 0.7 SSE 33 46 18 25 1017.9 1017.9 0.2
23/07:00am 12.0 6.0 10.9 93 0.6 SSE 33 46 18 25 1017.7 1017.7 0.2
23/06:30am 12.0 6.7 11.1 94 0.5 SSE 30 41 16 22 1017.7 1017.7 0.2
23/06:00am 11.9 6.2 11.0 94 0.5 SSE 32 43 17 23 1017.8 1017.8 0.2
23/05:30am 11.9 7.3 11.1 95 0.4 SSE 26 35 14 19 1017.7 1017.7 0.2
23/05:00am 11.9 6.6 11.1 95 0.4 SSE 30 39 16 21 1017.8 1017.8 0.2
23/04:30am 12.0 6.7 11.2 95 0.4 SSE 30 37 16 20 1017.7 1017.7 0.2
23/04:00am 12.0 5.4 11.2 95 0.4 SSE 37 48 20 26 1017.8 1017.8 0.2
23/03:37am 12.1 6.8 11.3 95 0.4 S 30 50 16 27 1018.0 1018.0 0.2
23/03:30am 12.0 6.3 11.2 95 0.4 S 32 44 17 24 1018.0 1018.0 0.2
23/03:02am 12.0 6.7 11.1 94 0.5 SSE 30 48 16 26 1018.1 1018.1 0.2
23/03:00am 12.1 7.2 11.2 94 0.5 SSE 28 43 15 23 1018.0 1018.0 0.2
23/02:30am 12.4 7.9 11.3 93 0.6 S 26 32 14 17 1018.0 1018.0 0.2
23/02:00am 12.5 7.6 11.4 93 0.6 S 28 37 15 20 1018.3 1018.3 0.2
23/01:30am 12.4 7.6 11.5 94 0.5 S 28 39 15 21 1018.4 1018.4 0.2
23/01:00am 12.5 7.7 11.6 94 0.5 S 28 39 15 21 1018.5 1018.5 0.2
23/12:30am 12.5 8.1 11.6 94 0.5 S 26 35 14 19 1018.6 1018.6 0.2
23/12:00am 12.6 8.5 11.5 93 0.6 S 24 33 13 18 1018.8 1018.7 0.2
 
Date/Time
EDT
Temp
°C
App
Temp
°C
Dew
Point
Rel
Hum
%
Delta-T
°C
Wind Press
QNH
hPa
Press
MSL
hPa
Rain
since 9 am
mm
Dir
 
Spd
km/h
Gust
km/h
Spd
kts
Gust
kts
22/11:30pm 12.8 7.6 11.7 93 0.6 SSE 30 39 16 21 1018.6 1018.6 0.2
22/11:00pm 13.1 8.3 11.8 92 0.7 S 28 39 15 21 1018.8 1018.7 0.2
22/10:30pm 13.1 8.7 11.8 92 0.7 SSE 26 35 14 19 1018.8 1018.7 0.2
22/10:08pm 13.2 7.6 11.4 89 1.0 SSE 32 50 17 27 1018.8 1018.7 0.2
22/10:00pm 13.5 8.3 11.6 88 1.0 S 30 37 16 20 1018.8 1018.7 0.2
22/09:30pm 15.2 10.9 12.1 82 1.7 S 26 37 14 20 1018.6 1018.6 0.2
22/09:00pm 16.9 13.7 12.0 73 2.7 S 20 26 11 14 1018.2 1018.2 0.2
22/08:30pm 18.4 14.8 11.7 65 3.7 S 22 30 12 16 1017.9 1017.9 0.2
22/08:00pm 20.6 17.1 11.0 54 5.3 S 20 30 11 16 1017.2 1017.2 0.2
22/07:30pm 22.6 18.1 12.5 53 5.8 SSE 28 37 15 20 1016.6 1016.6 0.2
22/07:00pm 25.1 21.9 12.0 44 7.5 S 20 30 11 16 1016.0 1015.9 0.2
22/06:30pm 26.2 22.6 10.4 37 8.9 S 20 32 11 17 1015.8 1015.7 0.2
22/06:00pm 27.4 23.4 11.8 38 9.0 S 24 35 13 19 1015.3 1015.2 0.2
22/05:30pm 28.4 24.9 13.5 40 8.9 S 24 37 13 20 1015.1 1015.0 0.2
22/05:00pm 30.1 27.7 10.1 29 11.4 SE 13 19 7 10 1015.0 1014.9 0.2
22/04:30pm 29.3 24.6 6.0 23 12.4 SSW 20 28 11 15 1014.8 1014.7 0.0
22/04:00pm 30.9 24.6 3.8 18 14.0 NNW 26 44 14 24 1013.9 1013.8 0.0
22/03:52pm 33.1 26.6 4.8 17 15.1 NNW 28 43 15 23 1013.9 1013.8 0.0
22/03:30pm 34.3 30.5 5.8 17 15.5 N 15 20 8 11 1014.0 1013.9 0.0
22/03:00pm 34.8 30.3 6.2 17 15.7 NNE 19 32 10 17 1014.5 1014.4 0.0
22/02:30pm 34.5 29.4 5.9 17 15.6 NNE 22 30 12 16 1015.0 1014.9 0.0
22/02:00pm 33.1 28.7 6.4 19 14.6 N 19 33 10 18 1015.6 1015.5 0.0
22/01:30pm 32.5 27.6 6.7 20 14.1 N 22 35 12 19 1015.9 1015.8 0.0
22/01:00pm 31.8 27.4 7.5 22 13.4 N 20 35 11 19 1016.4 1016.3 0.0
22/12:30pm 29.9 25.8 7.7 25 12.2 N 19 30 10 16 1017.0 1017.0 0.0
22/12:00pm 29.2 25.1 7.7 26 11.7 N 19 26 10 14 1017.4 1017.4 0.0
22/11:30am 27.9 24.0 8.7 30 10.6 NNE 19 28 10 15 1017.8 1017.8 0.0
22/11:00am 26.7 22.7 9.1 33 9.7 NNE 20 30 11 16 1018.1 1018.1 0.0
22/10:30am 25.0 21.2 9.7 38 8.5 NNE 20 28 11 15 1018.2 1018.2 0.0
22/10:00am 23.3 19.5 9.7 42 7.4 NE 20 28 11 15 1018.2 1018.2 0.0
22/09:30am 22.8 19.4 10.6 46 6.8 NE 19 26 10 14 1018.2 1018.2 0.0
22/09:00am 20.3 16.5 9.2 49 5.9 NE 19 26 10 14 1018.2 1018.2 0.0
22/08:30am 19.9 16.9 9.2 50 5.7 NNE 15 20 8 11 1018.4 1018.4 0.0
22/08:00am 20.2 16.7 8.8 48 6.0 NE 17 22 9 12 1018.4 1018.4 0.0
22/07:30am 18.2 15.8 8.5 53 5.1 NNE 11 15 6 8 1018.4 1018.4 0.0
22/07:00am 18.4 15.6 8.4 52 5.2 NE 13 17 7 9 1018.2 1018.2 0.0
22/06:30am 18.9 16.4 8.3 50 5.5 NE 11 17 6 9 1018.3 1018.3 0.0
22/06:00am 19.4 16.1 8.1 48 5.9 NE 15 20 8 11 1018.3 1018.3 0.0
22/05:30am 20.0 16.4 8.4 47 6.1 N 17 26 9 14 1018.3 1018.3 0.0
22/05:00am 20.9 17.3 8.2 44 6.7 N 17 22 9 12 1018.1 1018.1 0.0
22/04:30am 20.9 18.8 8.2 44 6.7 NNE 9 11 5 6 1018.0 1018.0 0.0
22/04:00am 21.5 15.8 8.4 43 6.9 NE 28 37 15 20 1017.6 1017.6 0.0
22/03:30am 21.7 17.8 8.6 43 7.0 NNE 19 30 10 16 1018.6 1018.6 0.0
22/03:00am 21.2 17.1 8.5 44 6.7 NNE 20 30 11 16 1018.6 1018.6 0.0
22/02:30am 21.2 16.7 8.5 44 6.7 NNE 22 30 12 16 1019.1 1019.0 0.0
22/02:00am 20.6 16.5 7.9 44 6.6 NE 19 26 10 14 1019.2 1019.1 0.0
22/01:30am 20.3 16.5 7.7 44 6.5 NNE 17 22 9 12 1019.6 1019.5 0.0
22/01:00am 20.9 17.0 7.2 41 7.1 NE 17 20 9 11 1020.0 1019.9 0.0
22/12:30am 21.2 16.8 6.7 39 7.4 NE 19 24 10 13 1020.2 1020.1 0.0
22/12:00am 21.6 17.0 6.3 37 7.8 NE 20 26 11 14 1020.3 1020.2 0.0
 
Date/Time
EDT
Temp
°C
App
Temp
°C
Dew
Point
Rel
Hum
%
Delta-T
°C
Wind Press
QNH
hPa
Press
MSL
hPa
Rain
since 9 am
mm
Dir
 
Spd
km/h
Gust
km/h
Spd
kts
Gust
kts
21/11:30pm 21.9 17.2 6.2 36 8.0 NE 20 24 11 13 1020.4 1020.3 0.0
21/11:00pm 20.6 16.4 5.8 38 7.4 NE 17 20 9 11 1020.7 1020.6 0.0
21/10:30pm 18.1 14.7 5.7 44 6.1 NE 13 15 7 8 1020.9 1020.8 0.0
21/10:00pm 18.3 15.5 5.2 42 6.4 ENE 9 13 5 7 1021.0 1021.0 0.0
21/09:30pm 20.1 16.8 4.6 36 7.6 ENE 11 13 6 7 1021.0 1021.0 0.0

Other Formats:

Comma delimited format used in spreadsheet applications
http://www.bom.gov.au/fwo/IDV60801/IDV60801.95827.axf

JavaScript Object Notation format (JSON) in row-major order
http://www.bom.gov.au/fwo/IDV60801/IDV60801.95827.json